| Date | Time | Temp. (oF) | Dew Point (oF) | Rel. Hum. (%) | Press. (in.) | Wind Dir. | Wind Speed (mph) | Hourly Rainfall (in.) |
|
|---|---|---|---|---|---|---|---|---|---|
| 1 | 01/27 | 00:00 | 22 | 16 | 80 | 30.15 | WNW | 11 | 0.00 |
| 2 | 01/26 | 23:00 | 24 | 20 | 86 | 30.12 | WNW | 5 | 0.00 |
| 3 | 01/26 | 22:00 | 26 | 25 | 98 | 30.08 | WNW | 11 | 0.00 |
| 4 | 01/26 | 21:00 | 26 | 26 | 100 | 30.07 | NW | 3 | 0.00 |
| 5 | 01/26 | 20:00 | 27 | 27 | 100 | 30.07 | W | 6 | 0.01 |
| 6 | 01/26 | 19:00 | 28 | 27 | 100 | 30.06 | W | 1 | 0.01 |
| 7 | 01/26 | 18:00 | 28 | 27 | 100 | 30.05 | SW | 2 | 0.00 |
| 8 | 01/26 | 17:00 | 29 | 28 | 98 | 30.03 | WNW | 3 | 0.01 |
| 9 | 01/26 | 16:00 | 29 | 27 | 94 | 30.01 | WSW | 4 | 0.00 |
| 10 | 01/26 | 15:00 | 31 | 27 | 86 | 30.00 | SSW | 4 | 0.00 |
| 11 | 01/26 | 14:00 | 33 | 19 | 58 | 30.01 | W | 4 | 0.00 |
| 12 | 01/26 | 13:00 | 33 | 19 | 57 | 30.03 | NW | 1 | 0.00 |
| 13 | 01/26 | 12:00 | 33 | 19 | 58 | 30.06 | NNW | 0 | 0.00 |
| 14 | 01/26 | 11:00 | 31 | 18 | 60 | 30.09 | WSW | 1 | 0.00 |
| 15 | 01/26 | 10:00 | 29 | 17 | 61 | 30.12 | S | 2 | 0.00 |
| 16 | 01/26 | 09:00 | 26 | 15 | 63 | 30.13 | SSE | 2 | 0.00 |
| 17 | 01/26 | 08:00 | 25 | 13 | 62 | 30.13 | S | 3 | 0.00 |
| 18 | 01/26 | 07:00 | 25 | 13 | 62 | 30.13 | SSE | 4 | 0.00 |
| 19 | 01/26 | 06:00 | 25 | 13 | 60 | 30.13 | S | 1 | 0.00 |
| 20 | 01/26 | 05:00 | 25 | 13 | 60 | 30.14 | S | 2 | 0.00 |
| 21 | 01/26 | 04:00 | 22 | 11 | 63 | 30.15 | SSW | 1 | 0.00 |
| 22 | 01/26 | 03:00 | 22 | 10 | 60 | 30.16 | S | 3 | 0.00 |
| 23 | 01/26 | 02:00 | 23 | 10 | 59 | 30.18 | SW | 4 | 0.00 |
| 24 | 01/26 | 01:00 | 24 | 10 | 56 | 30.19 | S | 5 | 0.00 |